Het weer op Woensdrecht:2014/04/24 12:36 EHWO 241236Z AUTO 35005KT 6000 BR OVC070 15/12 Q1018 WHT 35005KT 6000 -RADZ FEW025 BKN070 TEMPO 4000 RADZ BR FEW020 SCT035 BKN065
Het weer op Amsterdam:2014/04/24 12:25 EHAM 241225Z 02004KT 320V110 9000 NSC 18/12 Q1019 NOSIG

Menu promotie
· Startpagina
· Verslag FLY-IN 2009
· De vloot
· Kennismaken


Buien Radar


Picasa foto link
ACV externe fotolink


Inloggen voor leden
WelkomAnonymous!


Lid nummer    
Wachtwoord 
Code: Code
Type Code in
[Wachtwoord vergeten?]


 
Sorry, deze module is niet actief (acv_addon_4)

[ Ga terug ]
copyright (c) ACV 2006 - 2014

All logos and trademarks in this site are property of their respective owner. The comments are property of their posters, all the rest 2005 by me.
PHP-Nuke Copyright © 2005 by Francisco Burzi. This is free software, and you may redistribute it under the GPL. PHP-Nuke comes with absolutely no warranty, for details, see the license.
Pagina Rendering: 0.10 Seconden